ESFU weather

Public forecast

Using degrees Celsius for public forecast. Weather courtesy of forecast.io.

Closest aviation weather report (METAR) to Urasa Air Base

Closest report is Växjö Kronoberg Airport, 16.5 nm (30.6 km) NNW. Retrieved 2020/08/12 11:20 UTC (34 minutes ago):

ESMX 121120Z VRB01KT CAVOK 22/13 Q1024

Closest aviation forecast (TAF) to Urasa Air Base

Forecast is more than 12 hours old.

Closest forecast is Växjö Kronoberg Airport, 16.5 nm (30.6 km) NNW. Retrieved 2019/06/26 16:36 UTC (1 year ago):

TAF TAF ESMX 261530Z 2616/2724 30009KT 9999 SCT040TCU